Архив погоды в Рязани

Метеограмма Рязань
Вторник, 25 Июня
Время местн. Темп Ветер Видим Явления Облачность нижн/средн/верх Атм. давл. Влжн Точка росы ВНГО R Сост. почвы Tg s
Напр Скр Прв ур.ст ур.м изм
06:00 +15° С 2 - 20 км - преимущественно облачно 756 770 +1.1 57% +6.5° более 2.5 км - Сухая (без трещин) - -
03:00 +14.9° С 2 - 20 км - ясно 755 769 +0.6 54% +5.6° более 2.5 км - - - -
00:00 +13.8° штиль 0 - 20 км - ясно 754 768 +1 65% +7.4° более 2.5 км - - - -
Понедельник, 24 Июня
Время местн. Темп Ветер Видим Явления Облачность нижн/средн/верх Атм. давл. Влжн Точка росы ВНГО R Сост. почвы Tg s
Напр Скр Прв ур.ст ур.м изм
21:00 +20.7° С,С-В 1 - 20 км - переменная облачность 753 767 +1 35% +4.7° - - - - -
18:00 +24.7° С 3 - 20 км - переменная облачность 752 766 -0.2 30% +5.8° - - - - -
15:00 +25° С 3 - 20 км - ясно 752 766 -0.2 35% +8.6° более 2.5 км - - - -
12:00 +22.8° С,С-В 2 - 20 км - ясно 753 766 -0.2 47% +10.9° более 2.5 км - - - -
09:00 +18.3° С,С-В 1 - 20 км - преимущественно облачно 753 767 +0.8 74% +13.5° 1 км - - - -
06:00 +16.3° С-В 1 - 20 км небо без изменений {ливневые осадки} переменная облачность 752 766 +0.4 86% +13.9° - - Влажная (без луж) - -
03:00 +14.9° В 2 - 4 км слабый ливневый дождь {гроза} облачно 752 766 +1 91% +13.5° 600 м - - - -
00:00 +21.7° С,С-В 2 - 20 км - облачно 751 764 +0.5 51% +11.1° - - - - -
Воскресенье, 23 Июня
Время местн. Темп Ветер Видим Явления Облачность нижн/средн/верх Атм. давл. Влжн Точка росы ВНГО R Сост. почвы Tg s
Напр Скр Прв ур.ст ур.м изм
21:00 +24.6° С,С-В 2 - 20 км - переменная облачность 750 764 +0.2 52% +14.1° - - - - -
18:00 +28.3° С,С-В 2 - 20 км - переменная облачность 750 763 -0.5 44% +15° более 2.5 км - - - -
15:00 +29.4° С 2 - 20 км - переменная облачность 751 764 -0.2 42% +15.2° 1 км - - - -
12:00 +27.4° С 1 - 20 км - переменная облачность 751 764 0 51% +16.4° более 2.5 км - - - -
09:00 +24.1° С 2 - 20 км - переменная облачность 751 764 +0.5 71% +18.6° - - - - -
06:00 +21.2° С 2 - 20 км - переменная облачность 750 764 +0.8 78% +17.2° - - Сухая (без трещин) - -
03:00 +17.7° штиль 0 - 20 км - облачно с прояснениями 750 763 +0.5 82% +14.6° - - - - -
00:00 +19.2° штиль 0 - 20 км - переменная облачность 749 763 +0.1 68% +13.1° более 2.5 км - - - -
Суббота, 22 Июня
Время местн. Темп Ветер Видим Явления Облачность нижн/средн/верх Атм. давл. Влжн Точка росы ВНГО R Сост. почвы Tg s
Напр Скр Прв ур.ст ур.м изм
21:00 +23.7° Ю 1 - 20 км - переменная облачность 749 762 +0.1 53% +13.5° более 2.5 км - - - -
18:00 +31.3° З,Ю-З 3 - 20 км - переменная облачность 749 762 -0.8 25% +8.9° 1 км - - - -
15:00 +31.9° Ю-З 3 - 20 км - облачно с прояснениями 750 763 -0.3 25% +9.2° 1 км - - - -
12:00 +31.2° Ю-З 4 - 20 км - переменная облачность 750 763 +0.1 28% +10.5° - - - - -
09:00 +28° Ю-З 2 - 20 км - переменная облачность 750 763 -0.2 40% +13.2° - - - - -
06:00 +21° Ю 1 - 20 км - переменная облачность 750 764 +0.1 62% +13.4° - - Сухая (без трещин) - -
03:00 +16.8° штиль 0 - 20 км - переменная облачность 750 764 +0.2 82% +13.8° более 2.5 км - - - -